createdAt,value
2022-12-25T00:00:54.055Z,69.53
2022-12-25T00:02:56.131Z,70.57
2022-12-25T00:04:57.991Z,69.28
2022-12-25T00:06:59.855Z,68.93
2022-12-25T00:09:01.589Z,69.23
2022-12-25T00:11:06.636Z,69.36
2022-12-25T00:13:08.338Z,68.95
2022-12-25T00:15:10.335Z,69.24
2022-12-25T00:17:12.115Z,70.22
2022-12-25T00:19:13.916Z,70.22
2022-12-25T00:21:16.024Z,70.30
2022-12-25T00:23:17.712Z,69.83
2022-12-25T00:25:19.374Z,70.24
2022-12-25T00:27:21.048Z,70.84
2022-12-25T00:29:22.905Z,70.46
2022-12-25T00:31:25.390Z,70.58
2022-12-25T00:33:27.264Z,70.51
2022-12-25T00:35:28.937Z,70.83
2022-12-25T00:37:30.649Z,70.67
2022-12-25T00:39:32.706Z,70.28
2022-12-25T00:41:53.041Z,70.52
2022-12-25T00:43:54.740Z,70.47
2022-12-25T00:46:01.843Z,69.93
2022-12-25T00:48:03.851Z,69.95
2022-12-25T00:50:06.723Z,69.94
2022-12-25T00:52:08.942Z,70.06
2022-12-25T00:54:11.142Z,69.01
2022-12-25T00:56:12.831Z,69.40
2022-12-25T00:58:14.509Z,69.58
2022-12-25T01:00:16.609Z,69.73
2022-12-25T01:02:24.069Z,69.01
2022-12-25T01:04:25.809Z,68.92
2022-12-25T01:06:27.862Z,68.60
2022-12-25T01:08:31.135Z,68.89
2022-12-25T01:10:32.925Z,68.39
2022-12-25T01:12:36.562Z,68.53
2022-12-25T01:14:38.418Z,68.70
2022-12-25T01:16:40.255Z,68.55
2022-12-25T01:18:43.432Z,68.08
2022-12-25T01:20:45.391Z,68.53
2022-12-25T01:22:47.537Z,68.58
2022-12-25T01:24:49.262Z,68.37
2022-12-25T01:26:50.925Z,68.16
2022-12-25T01:28:53.917Z,68.42
2022-12-25T01:30:55.641Z,68.34
2022-12-25T01:32:57.697Z,68.75
2022-12-25T01:34:59.434Z,68.31
2022-12-25T01:37:01.850Z,68.81
2022-12-25T01:39:04.573Z,69.16
2022-12-25T01:41:06.445Z,68.59
2022-12-25T01:43:34.316Z,69.13
2022-12-25T01:45:42.748Z,68.43
2022-12-25T01:47:44.548Z,69.04
2022-12-25T01:49:48.936Z,69.12
2022-12-25T01:52:00.484Z,69.16
2022-12-25T01:54:05.660Z,68.99
2022-12-25T01:56:08.634Z,69.30
2022-12-25T01:58:10.440Z,69.33
2022-12-25T02:00:12.829Z,68.40
2022-12-25T02:02:14.865Z,68.67
2022-12-25T02:04:38.951Z,68.90
2022-12-25T02:06:41.769Z,68.61
2022-12-25T02:08:43.823Z,68.97
2022-12-25T02:10:45.848Z,68.92
2022-12-25T02:12:48.521Z,69.18
2022-12-25T02:14:51.738Z,68.34
2022-12-25T02:17:02.458Z,68.43
2022-12-25T02:19:11.686Z,68.23
2022-12-25T02:21:41.223Z,68.68
2022-12-25T02:23:58.131Z,68.38
2022-12-25T02:26:23.126Z,68.91
2022-12-25T02:28:41.075Z,68.47
2022-12-25T02:30:56.842Z,69.13
2022-12-25T02:33:39.389Z,68.68
2022-12-25T02:35:41.961Z,69.19
2022-12-25T02:37:57.581Z,69.01
2022-12-25T02:40:02.294Z,68.49
2022-12-25T02:42:08.490Z,68.56
2022-12-25T02:44:33.783Z,68.54
2022-12-25T02:46:54.072Z,68.71
2022-12-25T02:49:18.019Z,68.27
2022-12-25T02:51:40.535Z,67.90
2022-12-25T02:54:00.712Z,68.38
2022-12-25T02:56:20.908Z,67.56
2022-12-25T02:58:43.112Z,67.10
2022-12-25T03:01:07.981Z,67.20
2022-12-25T03:03:29.971Z,66.42
2022-12-25T03:05:51.303Z,66.58
2022-12-25T03:07:53.428Z,65.96
2022-12-25T03:10:23.218Z,66.50
2022-12-25T03:12:51.080Z,66.40
2022-12-25T03:15:11.288Z,65.95
2022-12-25T03:17:13.085Z,65.65
2022-12-25T03:19:33.691Z,65.65
2022-12-25T03:21:54.234Z,66.13
2022-12-25T03:24:18.568Z,65.18
2022-12-25T03:26:39.143Z,65.24
2022-12-25T03:28:40.868Z,65.08
2022-12-25T03:31:11.566Z,65.01
2022-12-25T03:33:45.285Z,65.24
2022-12-25T03:36:04.228Z,65.85
2022-12-25T03:38:50.480Z,65.95
2022-12-25T03:41:46.271Z,66.32
2022-12-25T03:44:13.319Z,66.47
2022-12-25T03:46:35.453Z,65.97
2022-12-25T03:48:59.935Z,65.99
2022-12-25T03:51:24.668Z,65.86
2022-12-25T03:53:48.754Z,66.40
2022-12-25T03:56:09.827Z,66.49
2022-12-25T03:58:38.179Z,66.01
2022-12-25T04:00:58.293Z,65.60
2022-12-25T04:03:18.421Z,65.97
2022-12-25T04:05:39.051Z,65.81
2022-12-25T04:07:59.444Z,66.49
2022-12-25T04:10:19.843Z,66.16
2022-12-25T04:12:39.850Z,65.78
2022-12-25T04:15:00.385Z,66.37
2022-12-25T04:17:20.859Z,66.25
2022-12-25T04:19:41.295Z,66.51
2022-12-25T04:22:01.548Z,66.51
2022-12-25T04:24:21.967Z,66.86
2022-12-25T04:26:42.462Z,66.19
2022-12-25T04:29:02.809Z,66.63
2022-12-25T04:31:23.412Z,66.27
2022-12-25T04:33:43.935Z,66.03
2022-12-25T04:36:08.300Z,66.66
2022-12-25T04:38:09.988Z,67.36
2022-12-25T04:40:11.869Z,67.31
2022-12-25T04:42:13.717Z,67.15
2022-12-25T04:44:15.579Z,67.34
2022-12-25T04:46:17.405Z,67.07
2022-12-25T04:48:19.021Z,67.51
2022-12-25T04:50:20.719Z,67.00
2022-12-25T04:52:22.435Z,67.84
2022-12-25T04:54:24.156Z,68.03
2022-12-25T04:56:25.903Z,68.01
2022-12-25T04:58:27.625Z,67.83
2022-12-25T05:00:29.254Z,67.76
2022-12-25T05:02:31.770Z,68.12
2022-12-25T05:04:33.776Z,68.63
2022-12-25T05:06:35.494Z,68.64
2022-12-25T05:08:37.437Z,69.01
2022-12-25T05:10:40.497Z,69.32
2022-12-25T05:12:42.316Z,68.98
2022-12-25T05:14:44.103Z,69.29
2022-12-25T05:16:45.880Z,68.09
2022-12-25T05:18:51.231Z,68.41
2022-12-25T05:20:55.720Z,67.87
2022-12-25T05:22:57.468Z,67.43
2022-12-25T05:25:00.447Z,67.71
2022-12-25T05:27:02.058Z,68.10
2022-12-25T05:29:03.898Z,67.45
2022-12-25T05:31:05.703Z,66.98
2022-12-25T05:33:07.582Z,67.04
2022-12-25T05:35:09.749Z,66.52
2022-12-25T05:37:11.463Z,66.04
2022-12-25T05:39:13.169Z,65.73
2022-12-25T05:41:15.037Z,65.50
2022-12-25T05:43:16.770Z,65.07
2022-12-25T05:45:18.538Z,64.11
2022-12-25T05:47:20.570Z,64.19
2022-12-25T05:49:22.235Z,64.49
2022-12-25T05:51:23.998Z,64.19
2022-12-25T05:53:25.733Z,63.65
2022-12-25T05:55:27.461Z,63.91
2022-12-25T05:57:29.849Z,64.03
2022-12-25T05:59:33.123Z,63.81
2022-12-25T06:01:35.033Z,63.11
2022-12-25T06:03:36.829Z,63.13
2022-12-25T06:05:39.899Z,63.15
2022-12-25T06:07:41.602Z,62.76
2022-12-25T06:09:43.419Z,63.02
2022-12-25T06:11:45.463Z,62.72
2022-12-25T06:13:50.978Z,63.00
2022-12-25T06:15:52.663Z,62.45
2022-12-25T06:17:54.656Z,62.61
2022-12-25T06:19:56.336Z,63.00
2022-12-25T06:21:58.135Z,62.77
2022-12-25T06:24:00.782Z,62.73
2022-12-25T06:26:07.126Z,62.91
2022-12-25T06:28:09.000Z,62.08
2022-12-25T06:30:10.997Z,62.61
2022-12-25T06:32:12.620Z,61.97
2022-12-25T06:34:16.716Z,61.28
2022-12-25T06:36:21.052Z,59.47
2022-12-25T06:38:22.697Z,58.80
2022-12-25T06:40:24.435Z,57.39
2022-12-25T06:42:26.398Z,55.99
2022-12-25T06:44:28.137Z,56.46
2022-12-25T06:46:30.472Z,57.32
2022-12-25T06:48:36.079Z,57.97
2022-12-25T06:50:43.669Z,58.39
2022-12-25T06:52:46.080Z,58.58
2022-12-25T06:54:47.763Z,59.41
2022-12-25T06:56:50.016Z,59.58
2022-12-25T06:58:57.387Z,59.69
2022-12-25T07:00:59.265Z,60.06
2022-12-25T07:03:01.191Z,60.28
2022-12-25T07:05:04.231Z,60.60
2022-12-25T07:07:09.169Z,60.08
2022-12-25T07:09:11.241Z,60.83
2022-12-25T07:11:13.054Z,60.55
2022-12-25T07:13:14.778Z,60.03
2022-12-25T07:15:16.586Z,60.66
2022-12-25T07:17:19.662Z,59.99
2022-12-25T07:19:21.278Z,60.67
2022-12-25T07:21:22.916Z,60.32
2022-12-25T07:23:24.697Z,60.63
2022-12-25T07:25:27.351Z,60.80
2022-12-25T07:27:31.522Z,60.93
2022-12-25T07:29:33.217Z,60.38
2022-12-25T07:31:35.249Z,59.96
2022-12-25T07:33:36.967Z,60.49
2022-12-25T07:35:38.861Z,60.18
2022-12-25T07:37:40.485Z,60.55
2022-12-25T07:39:42.169Z,60.44
2022-12-25T07:41:44.469Z,60.50
2022-12-25T07:43:50.116Z,60.39
2022-12-25T07:45:59.290Z,59.82
2022-12-25T07:48:05.153Z,60.49
2022-12-25T07:50:09.758Z,60.58
2022-12-25T07:52:11.635Z,60.23
2022-12-25T07:54:13.245Z,59.54
2022-12-25T07:56:20.345Z,60.31
2022-12-25T07:58:23.591Z,60.15
2022-12-25T08:00:29.818Z,60.19
2022-12-25T08:02:31.699Z,60.14
2022-12-25T08:04:33.571Z,59.80
2022-12-25T08:06:35.889Z,59.50
2022-12-25T08:08:38.551Z,59.18
2022-12-25T08:10:46.432Z,59.57
2022-12-25T08:12:48.115Z,59.21
2022-12-25T08:14:49.821Z,60.12
2022-12-25T08:16:51.610Z,59.41
2022-12-25T08:18:53.838Z,59.56
2022-12-25T08:20:55.735Z,59.34
2022-12-25T08:22:57.401Z,58.91
2022-12-25T08:24:59.059Z,59.18
2022-12-25T08:27:00.774Z,58.33
2022-12-25T08:29:02.621Z,57.90
2022-12-25T08:31:09.381Z,58.19
2022-12-25T08:33:11.058Z,57.95
2022-12-25T08:35:13.025Z,57.45
2022-12-25T08:37:14.757Z,57.52
2022-12-25T08:39:16.461Z,57.67
2022-12-25T08:41:18.273Z,57.20
2022-12-25T08:43:20.006Z,57.31
2022-12-25T08:45:21.684Z,57.17
2022-12-25T08:47:23.319Z,57.17
2022-12-25T08:49:27.539Z,57.16
2022-12-25T08:51:29.553Z,57.04
2022-12-25T08:53:31.271Z,57.15
2022-12-25T08:55:33.329Z,56.83
2022-12-25T08:57:35.022Z,56.64
2022-12-25T08:59:36.631Z,56.30
2022-12-25T09:01:38.444Z,56.46
2022-12-25T09:03:40.261Z,55.96
2022-12-25T09:05:41.971Z,56.29
2022-12-25T09:07:43.744Z,56.12
2022-12-25T09:09:45.647Z,55.99
2022-12-25T09:11:49.402Z,56.04
2022-12-25T09:13:51.111Z,55.82
2022-12-25T09:15:53.513Z,56.38
2022-12-25T09:17:55.223Z,56.05
2022-12-25T09:19:56.976Z,55.48
2022-12-25T09:21:58.709Z,54.97
2022-12-25T09:24:00.347Z,55.17
2022-12-25T09:26:03.269Z,55.20
2022-12-25T09:28:05.065Z,54.89
2022-12-25T09:30:07.324Z,54.26
2022-12-25T09:32:09.819Z,54.33
2022-12-25T09:34:17.091Z,53.58
2022-12-25T09:36:23.564Z,53.48
2022-12-25T09:38:25.906Z,53.56
2022-12-25T09:40:30.564Z,52.89
2022-12-25T09:42:34.491Z,52.40
2022-12-25T09:44:43.084Z,53.41
2022-12-25T09:46:51.748Z,54.67
2022-12-25T09:49:32.269Z,54.46
2022-12-25T09:51:35.873Z,53.41
2022-12-25T09:53:40.402Z,53.13
2022-12-25T09:56:02.177Z,53.13
2022-12-25T09:58:12.675Z,53.27
2022-12-25T10:00:16.625Z,53.40
2022-12-25T10:02:43.382Z,52.51
2022-12-25T10:05:17.736Z,52.26
2022-12-25T10:07:46.788Z,52.27
2022-12-25T10:10:30.794Z,52.91
2022-12-25T10:12:43.272Z,54.87
2022-12-25T10:15:10.019Z,55.00
2022-12-25T10:17:53.092Z,54.72
2022-12-25T10:20:18.815Z,53.19
2022-12-25T10:22:27.945Z,52.35
2022-12-25T10:24:53.253Z,52.29
2022-12-25T10:26:56.050Z,52.82
2022-12-25T10:29:09.712Z,53.33
2022-12-25T10:31:23.627Z,53.68
2022-12-25T10:33:25.629Z,53.19
2022-12-25T10:35:29.150Z,52.72
2022-12-25T10:37:30.773Z,53.18
2022-12-25T10:39:32.523Z,53.77
2022-12-25T10:41:59.039Z,54.46
2022-12-25T10:44:01.214Z,53.67
2022-12-25T10:46:09.959Z,53.19
2022-12-25T10:48:26.210Z,53.14
2022-12-25T10:50:28.758Z,52.36
2022-12-25T10:52:30.436Z,52.25
2022-12-25T10:54:35.700Z,51.83
2022-12-25T10:56:37.376Z,51.93
2022-12-25T10:58:38.964Z,51.87
2022-12-25T11:00:40.904Z,52.00
2022-12-25T11:02:42.663Z,52.21
2022-12-25T11:04:44.713Z,51.52
2022-12-25T11:06:56.884Z,51.64
2022-12-25T11:09:01.138Z,52.45
2022-12-25T11:11:06.606Z,51.96
2022-12-25T11:13:19.337Z,51.97
2022-12-25T11:15:40.872Z,51.77
2022-12-25T11:17:48.744Z,51.78
2022-12-25T11:19:59.067Z,51.01
2022-12-25T11:22:02.110Z,51.03
2022-12-25T11:24:22.199Z,51.50
2022-12-25T11:26:24.051Z,52.42
2022-12-25T11:28:27.542Z,54.45
2022-12-25T11:30:30.367Z,54.12
2022-12-25T11:32:37.764Z,53.61
2022-12-25T11:34:47.618Z,52.76
2022-12-25T11:36:50.967Z,52.42
2022-12-25T11:38:52.770Z,51.97
2022-12-25T11:41:01.711Z,52.20
2022-12-25T11:43:10.206Z,52.83
2022-12-25T11:45:13.135Z,53.31
2022-12-25T11:47:23.905Z,53.80
2022-12-25T11:49:25.627Z,54.09
2022-12-25T11:51:32.849Z,53.78
2022-12-25T11:54:20.723Z,52.60
2022-12-25T11:56:25.222Z,51.57
2022-12-25T11:58:35.852Z,51.73
2022-12-25T12:00:38.000Z,51.22
2022-12-25T12:02:45.970Z,52.12
2022-12-25T12:04:50.005Z,53.23
2022-12-25T12:06:55.874Z,52.74
2022-12-25T12:09:05.613Z,52.60
2022-12-25T12:11:41.309Z,53.52
2022-12-25T12:13:52.196Z,53.56
2022-12-25T12:15:53.963Z,53.41
2022-12-25T12:17:55.984Z,52.88
2022-12-25T12:19:59.010Z,52.80
2022-12-25T12:22:02.978Z,52.88
2022-12-25T12:24:14.536Z,52.38
2022-12-25T12:26:21.217Z,51.71
2022-12-25T12:28:26.935Z,51.33
2022-12-25T12:30:32.479Z,52.27
2022-12-25T12:32:34.117Z,53.77
2022-12-25T12:34:42.626Z,53.70
2022-12-25T12:36:44.442Z,53.10
2022-12-25T12:38:46.157Z,52.89
2022-12-25T12:40:59.908Z,53.61
2022-12-25T12:43:02.096Z,54.38
2022-12-25T12:45:27.051Z,54.90
2022-12-25T12:47:28.721Z,53.73
2022-12-25T12:49:32.995Z,53.84
2022-12-25T12:51:36.624Z,52.71
2022-12-25T12:53:40.487Z,52.83
2022-12-25T12:55:42.101Z,52.62
2022-12-25T12:57:43.761Z,52.73
2022-12-25T12:59:46.963Z,52.06
2022-12-25T13:01:56.081Z,51.83
2022-12-25T13:04:36.287Z,51.88
2022-12-25T13:06:48.681Z,52.67
2022-12-25T13:09:18.689Z,52.96
2022-12-25T13:11:23.578Z,53.06
2022-12-25T13:13:28.632Z,51.93
2022-12-25T13:15:35.374Z,52.73
2022-12-25T13:17:37.405Z,53.02
2022-12-25T13:19:42.511Z,52.68
2022-12-25T13:21:56.263Z,52.61
2022-12-25T13:24:03.751Z,52.74
2022-12-25T13:26:17.108Z,52.18
2022-12-25T13:28:24.834Z,51.49
2022-12-25T13:30:26.962Z,51.67
2022-12-25T13:32:30.192Z,51.82
2022-12-25T13:34:40.579Z,53.07
2022-12-25T13:36:42.263Z,53.17
2022-12-25T13:38:49.547Z,52.82
2022-12-25T13:41:10.681Z,52.90
2022-12-25T13:43:12.329Z,53.28
2022-12-25T13:45:13.997Z,53.05
2022-12-25T13:47:23.178Z,52.66
2022-12-25T13:49:24.959Z,52.57
2022-12-25T13:51:27.260Z,52.07
2022-12-25T13:53:29.329Z,52.71
2022-12-25T13:55:31.069Z,52.36
2022-12-25T13:57:38.080Z,52.72
2022-12-25T13:59:39.957Z,52.61
2022-12-25T14:01:45.316Z,52.40
2022-12-25T14:03:47.667Z,52.56
2022-12-25T14:06:00.996Z,52.69
2022-12-25T14:08:05.097Z,52.49
2022-12-25T14:10:07.369Z,52.42
2022-12-25T14:12:12.865Z,52.24
2022-12-25T14:14:23.193Z,52.44
2022-12-25T14:16:26.076Z,52.60
2022-12-25T14:18:29.017Z,52.64
2022-12-25T14:20:41.140Z,52.42
2022-12-25T14:22:42.817Z,52.69
2022-12-25T14:24:44.571Z,52.63
2022-12-25T14:26:46.266Z,52.71
2022-12-25T14:28:49.634Z,52.71
2022-12-25T14:30:51.637Z,52.73
2022-12-25T14:32:54.080Z,52.93
2022-12-25T14:34:59.138Z,52.94
2022-12-25T14:37:01.827Z,52.83
2022-12-25T14:39:07.068Z,52.65
2022-12-25T14:41:24.217Z,52.39
2022-12-25T14:43:28.785Z,52.34
2022-12-25T14:45:38.872Z,52.56
2022-12-25T14:47:51.973Z,52.42
2022-12-25T14:49:54.712Z,52.46
2022-12-25T14:51:56.409Z,52.31
2022-12-25T14:54:03.539Z,52.59
2022-12-25T14:56:07.079Z,52.27
2022-12-25T14:58:22.467Z,52.36
2022-12-25T15:00:31.778Z,52.15
2022-12-25T15:02:44.923Z,51.89
2022-12-25T15:04:47.142Z,52.07
2022-12-25T15:06:55.516Z,52.21
2022-12-25T15:08:59.720Z,52.20
2022-12-25T15:11:03.180Z,52.67
2022-12-25T15:13:05.861Z,52.41
2022-12-25T15:15:07.920Z,52.25
2022-12-25T15:17:20.676Z,52.38
2022-12-25T15:19:31.750Z,52.28
2022-12-25T15:21:37.776Z,52.41
2022-12-25T15:23:39.388Z,52.68
2022-12-25T15:25:41.064Z,52.96
2022-12-25T15:27:42.714Z,53.13
2022-12-25T15:30:09.069Z,53.13
2022-12-25T15:32:13.872Z,53.30
2022-12-25T15:34:21.831Z,53.78
2022-12-25T15:36:24.696Z,53.85
2022-12-25T15:38:26.571Z,53.64
2022-12-25T15:40:28.290Z,53.81
2022-12-25T15:42:30.861Z,54.15
2022-12-25T15:44:32.816Z,53.68
2022-12-25T15:46:35.050Z,54.17
2022-12-25T15:48:36.692Z,53.96
2022-12-25T15:50:39.683Z,54.04
2022-12-25T15:52:41.401Z,54.20
2022-12-25T15:54:43.062Z,54.20
2022-12-25T15:56:46.564Z,53.87
2022-12-25T15:58:48.223Z,54.19
2022-12-25T16:00:50.784Z,54.02
2022-12-25T16:02:53.631Z,53.87
2022-12-25T16:04:55.542Z,53.70
2022-12-25T16:06:57.421Z,53.71
2022-12-25T16:08:59.125Z,54.28
2022-12-25T16:11:00.749Z,54.08
2022-12-25T16:13:02.686Z,54.70
2022-12-25T16:15:04.992Z,54.74
2022-12-25T16:17:06.985Z,55.00
2022-12-25T16:19:08.700Z,55.14
2022-12-25T16:21:15.677Z,55.21
2022-12-25T16:23:17.434Z,55.01
2022-12-25T16:25:19.893Z,54.96
2022-12-25T16:27:22.025Z,55.12
2022-12-25T16:29:23.832Z,55.03
2022-12-25T16:31:25.656Z,55.52
2022-12-25T16:33:28.298Z,55.12
2022-12-25T16:35:30.019Z,55.09
2022-12-25T16:37:31.905Z,55.41
2022-12-25T16:39:33.757Z,55.06
2022-12-25T16:41:35.421Z,55.34
2022-12-25T16:43:37.137Z,55.08
2022-12-25T16:45:40.064Z,54.84
2022-12-25T16:47:42.195Z,54.36
2022-12-25T16:49:44.186Z,54.73
2022-12-25T16:51:45.847Z,54.91
2022-12-25T16:53:48.068Z,54.95
2022-12-25T16:55:49.833Z,55.17
2022-12-25T16:57:51.534Z,54.64
2022-12-25T16:59:53.292Z,54.83
2022-12-25T17:01:55.112Z,54.71
2022-12-25T17:04:01.644Z,54.52
2022-12-25T17:06:04.662Z,54.64
2022-12-25T17:08:06.348Z,54.64
2022-12-25T17:10:09.005Z,54.69
2022-12-25T17:12:10.814Z,54.57
2022-12-25T17:14:12.473Z,54.29
2022-12-25T17:16:23.199Z,54.79
2022-12-25T17:18:24.917Z,54.67
2022-12-25T17:20:26.576Z,55.14
2022-12-25T17:22:28.224Z,54.77
2022-12-25T17:24:30.100Z,54.43
2022-12-25T17:26:32.635Z,54.79
2022-12-25T17:28:34.845Z,54.36
2022-12-25T17:30:36.513Z,54.71
2022-12-25T17:32:38.353Z,54.70
2022-12-25T17:34:40.131Z,54.69
2022-12-25T17:36:41.925Z,54.81
2022-12-25T17:38:44.096Z,54.62
2022-12-25T17:40:46.058Z,55.06
2022-12-25T17:42:47.692Z,54.34
2022-12-25T17:44:49.444Z,54.59
2022-12-25T17:46:51.335Z,54.27
2022-12-25T17:48:55.126Z,54.65
2022-12-25T17:51:03.948Z,54.19
2022-12-25T17:53:06.466Z,54.63
2022-12-25T17:55:08.644Z,54.59
2022-12-25T17:57:10.409Z,54.63
2022-12-25T17:59:18.198Z,54.43
2022-12-25T18:01:21.080Z,55.22
2022-12-25T18:03:23.818Z,54.67
2022-12-25T18:05:25.631Z,54.61
2022-12-25T18:07:27.391Z,54.34
2022-12-25T18:09:29.430Z,54.15
2022-12-25T18:11:33.264Z,54.68
2022-12-25T18:13:34.975Z,54.47
2022-12-25T18:15:39.907Z,55.79
2022-12-25T18:17:42.170Z,55.91
2022-12-25T18:20:03.964Z,56.90
2022-12-25T18:22:05.643Z,60.01
2022-12-25T18:24:08.378Z,55.30
2022-12-25T18:26:14.171Z,54.20
2022-12-25T18:28:16.113Z,55.32
2022-12-25T18:30:17.944Z,51.00
2022-12-25T18:32:24.860Z,49.06
2022-12-25T18:34:29.421Z,48.52
2022-12-25T18:36:31.335Z,48.18
2022-12-25T18:38:33.704Z,48.33
2022-12-25T18:40:45.339Z,48.57
2022-12-25T18:42:52.283Z,49.45
2022-12-25T18:44:55.464Z,49.66
2022-12-25T18:46:57.148Z,50.06
2022-12-25T18:48:58.845Z,50.21
2022-12-25T18:51:05.100Z,50.60
2022-12-25T18:53:07.491Z,50.51
2022-12-25T18:55:09.811Z,50.65
2022-12-25T18:57:11.856Z,50.35
2022-12-25T18:59:13.568Z,50.50
2022-12-25T19:01:20.949Z,51.28
2022-12-25T19:03:22.868Z,51.34
2022-12-25T19:05:25.313Z,51.63
2022-12-25T19:07:26.985Z,51.89
2022-12-25T19:09:28.735Z,52.01
2022-12-25T19:11:30.685Z,52.11
2022-12-25T19:13:32.361Z,51.91
2022-12-25T19:15:35.737Z,51.94
2022-12-25T19:17:37.509Z,51.91
2022-12-25T19:19:39.352Z,51.97
2022-12-25T19:21:41.465Z,52.39
2022-12-25T19:23:43.554Z,52.43
2022-12-25T19:25:45.675Z,52.60
2022-12-25T19:27:47.357Z,52.78
2022-12-25T19:29:49.313Z,53.36
2022-12-25T19:31:51.253Z,52.33
2022-12-25T19:33:53.148Z,52.53
2022-12-25T19:36:02.577Z,52.18
2022-12-25T19:38:04.400Z,52.69
2022-12-25T19:40:07.125Z,52.56
2022-12-25T19:42:08.787Z,52.76
2022-12-25T19:44:10.813Z,52.95
2022-12-25T19:46:29.939Z,53.64
2022-12-25T19:48:32.834Z,53.63
2022-12-25T19:50:34.566Z,53.13
2022-12-25T19:52:36.240Z,53.04
2022-12-25T19:54:38.061Z,53.67
2022-12-25T19:56:40.082Z,53.35
2022-12-25T19:58:41.932Z,53.12
2022-12-25T20:00:43.947Z,53.62
2022-12-25T20:02:45.759Z,53.10
2022-12-25T20:04:47.742Z,53.35
2022-12-25T20:06:49.732Z,53.47
2022-12-25T20:08:53.826Z,53.36
2022-12-25T20:10:55.491Z,53.23
2022-12-25T20:12:57.200Z,53.31
2022-12-25T20:14:58.999Z,53.14
2022-12-25T20:17:00.757Z,53.21
2022-12-25T20:19:02.495Z,52.70
2022-12-25T20:21:07.310Z,53.15
2022-12-25T20:23:09.121Z,53.01
2022-12-25T20:25:11.515Z,53.25
2022-12-25T20:27:13.440Z,53.29
2022-12-25T20:29:16.968Z,54.00
2022-12-25T20:31:30.246Z,55.57
2022-12-25T20:33:31.924Z,54.40
2022-12-25T20:35:33.899Z,54.83
2022-12-25T20:37:35.554Z,55.04
2022-12-25T20:39:38.752Z,55.54
2022-12-25T20:41:40.983Z,56.30
2022-12-25T20:43:45.485Z,57.29
2022-12-25T20:45:50.470Z,57.72
2022-12-25T20:47:52.090Z,59.30
2022-12-25T20:49:54.537Z,58.62
2022-12-25T20:51:59.851Z,59.17
2022-12-25T20:54:09.480Z,58.68
2022-12-25T20:56:13.515Z,59.37
2022-12-25T20:58:16.960Z,58.88
2022-12-25T21:00:18.821Z,58.64
2022-12-25T21:02:34.117Z,59.28
2022-12-25T21:04:38.013Z,59.71
2022-12-25T21:06:39.715Z,59.61
2022-12-25T21:08:41.500Z,59.02
2022-12-25T21:10:44.369Z,59.08
2022-12-25T21:12:46.057Z,58.97
2022-12-25T21:14:47.709Z,59.23
2022-12-25T21:16:50.258Z,60.29
2022-12-25T21:18:53.507Z,59.97
2022-12-25T21:20:57.406Z,59.65
2022-12-25T21:22:58.912Z,60.08
2022-12-25T21:25:00.668Z,60.80
2022-12-25T21:27:02.421Z,60.75
2022-12-25T21:29:04.609Z,61.33
2022-12-25T21:31:07.885Z,61.26
2022-12-25T21:33:31.210Z,61.50
2022-12-25T21:35:36.746Z,61.07
2022-12-25T21:37:38.479Z,61.08
2022-12-25T21:39:40.384Z,61.69
2022-12-25T21:41:42.188Z,62.33
2022-12-25T21:43:43.923Z,62.33
2022-12-25T21:45:45.737Z,63.33
2022-12-25T21:48:01.831Z,64.36
2022-12-25T21:50:23.632Z,63.79
2022-12-25T21:52:25.472Z,63.92
2022-12-25T21:54:27.482Z,63.93
2022-12-25T21:56:36.003Z,63.93
2022-12-25T21:58:40.132Z,63.60
2022-12-25T22:00:41.781Z,63.74
2022-12-25T22:02:43.585Z,63.44
2022-12-25T22:04:45.273Z,63.25
2022-12-25T22:07:05.999Z,62.87
2022-12-25T22:09:08.992Z,63.68
2022-12-25T22:11:30.646Z,63.16
2022-12-25T22:13:50.771Z,62.90
2022-12-25T22:16:11.483Z,62.87
2022-12-25T22:18:33.173Z,62.75
2022-12-25T22:20:38.591Z,62.59
2022-12-25T22:22:40.388Z,62.96
2022-12-25T22:24:42.355Z,62.38
2022-12-25T22:26:44.674Z,62.18
2022-12-25T22:28:46.342Z,62.63
2022-12-25T22:30:47.993Z,62.25
2022-12-25T22:32:49.865Z,62.17
2022-12-25T22:34:52.083Z,62.06
2022-12-25T22:36:54.276Z,62.06
2022-12-25T22:38:56.015Z,62.38
2022-12-25T22:40:57.894Z,62.58
2022-12-25T22:42:59.611Z,62.22
2022-12-25T22:45:01.741Z,62.45
2022-12-25T22:47:03.885Z,62.75
2022-12-25T22:49:05.661Z,63.03
2022-12-25T22:51:07.393Z,63.10
2022-12-25T22:53:09.131Z,62.76
2022-12-25T22:55:11.070Z,62.22
2022-12-25T22:57:12.817Z,62.68
2022-12-25T22:59:16.563Z,63.06
2022-12-25T23:01:18.321Z,62.75
2022-12-25T23:03:20.125Z,62.54
2022-12-25T23:05:21.913Z,62.52
2022-12-25T23:07:23.536Z,62.24
2022-12-25T23:09:28.023Z,62.19
2022-12-25T23:11:29.987Z,62.81
2022-12-25T23:13:50.746Z,62.36
2022-12-25T23:15:52.433Z,62.34
2022-12-25T23:18:12.977Z,62.63
2022-12-25T23:20:34.086Z,62.42
2022-12-25T23:22:54.601Z,62.81
2022-12-25T23:25:15.981Z,63.16
2022-12-25T23:27:17.932Z,63.53
2022-12-25T23:29:45.589Z,63.23
2022-12-25T23:31:53.770Z,63.48
2022-12-25T23:33:55.755Z,63.41
2022-12-25T23:35:57.562Z,63.64
2022-12-25T23:37:59.260Z,63.47
2022-12-25T23:40:01.349Z,63.25
2022-12-25T23:42:03.224Z,63.17
2022-12-25T23:44:05.000Z,63.12
2022-12-25T23:46:06.746Z,63.13
2022-12-25T23:48:08.544Z,63.35
2022-12-25T23:50:10.558Z,63.15
2022-12-25T23:52:13.100Z,64.16
2022-12-25T23:54:17.099Z,64.53
2022-12-25T23:56:18.855Z,64.85
2022-12-25T23:58:20.786Z,64.89
